Time;durP1;ratioP1;P1;durP2;ratioP2;P2;SDS_P1;SDS_P2;PMS_P1;PMS_P2;Temp;Humidity;BMP_temperature;BMP_pressure;BME280_temperature;BME280_humidity;BME280_pressure;Samples;Min_cycle;Max_cycle;Signal;HPM_P1;HPM_P2
2024/01/30 00:00:31;;;;;;;11.47;6.10;;;;;;;-141.97;52.43;46350.69;4956657;28;20579;-84
2024/01/30 00:02:57;;;;;;;12.20;6.50;;;;;;;-141.97;52.20;46185.44;4972500;28;20509;-85
2024/01/30 00:05:22;;;;;;;12.63;6.10;;;;;;;-141.97;52.38;46052.88;4991515;28;20177;-85
2024/01/30 00:07:48;;;;;;;13.37;6.00;;;;;;;-141.97;52.48;46208.50;4995549;28;20163;-85
2024/01/30 00:10:13;;;;;;;14.77;6.40;;;;;;;-141.97;52.75;46112.44;4998191;28;20186;-86
2024/01/30 00:12:39;;;;;;;10.07;5.83;;;;;;;-141.97;52.66;46181.59;4997974;28;20247;-86
2024/01/30 00:15:04;;;;;;;11.47;6.07;;;;;;;-141.97;52.86;46147.03;5016244;28;20211;-85
2024/01/30 00:17:30;;;;;;;11.20;6.50;;;;;;;-141.97;52.89;46139.34;4999694;28;20164;-85
2024/01/30 00:19:56;;;;;;;15.63;6.80;;;;;;;-141.97;52.95;46246.94;5001045;28;20211;-85
2024/01/30 00:22:21;;;;;;;13.70;6.53;;;;;;;-141.97;52.75;45960.66;5012384;28;20172;-84
2024/01/30 00:24:46;;;;;;;11.97;5.90;;;;;;;-141.97;52.92;46120.13;4976556;28;20223;-84
2024/01/30 00:27:12;;;;;;;11.30;6.13;;;;;;;-141.97;53.04;46100.91;4989721;28;20569;-84
2024/01/30 00:29:37;;;;;;;12.13;6.30;;;;;;;-141.97;53.10;46473.66;4972475;28;20251;-84
2024/01/30 00:32:03;;;;;;;13.27;6.67;;;;;;;-141.97;53.62;45901.09;4972623;28;20164;-84
2024/01/30 00:34:28;;;;;;;12.17;6.37;;;;;;;-141.97;53.63;46185.44;4973562;28;20290;-85
2024/01/30 00:36:54;;;;;;;12.77;6.67;;;;;;;-141.97;53.64;46143.19;4972478;28;20314;-84
2024/01/30 00:39:19;;;;;;;12.13;6.07;;;;;;;-141.97;53.82;45943.38;4972345;28;20172;-85
2024/01/30 00:41:46;;;;;;;13.53;6.27;;;;;;;-141.97;53.79;46123.97;4972745;28;20238;-84
2024/01/30 00:44:12;;;;;;;11.87;6.47;;;;;;;-141.97;54.36;46177.75;4972295;28;20213;-85
2024/01/30 00:46:37;;;;;;;13.53;6.73;;;;;;;-141.97;54.32;45974.09;4972926;28;20965;-84
2024/01/30 00:49:03;;;;;;;13.90;6.60;;;;;;;-141.97;54.52;46160.47;4959808;28;20164;-83
2024/01/30 00:51:29;;;;;;;11.93;6.30;;;;;;;-141.97;54.60;46029.81;4991338;28;20183;-85
2024/01/30 00:53:55;;;;;;;16.37;6.87;;;;;;;-141.97;55.32;46508.22;4959250;28;20254;-85
2024/01/30 00:56:20;;;;;;;22.67;10.00;;;;;;;-141.97;56.05;46514.00;4975190;28;20964;-85
2024/01/30 00:58:46;;;;;;;29.27;11.57;;;;;;;-141.97;56.79;46185.44;4975437;28;20179;-84
2024/01/30 01:01:12;;;;;;;43.63;16.23;;;;;;;-141.97;57.34;46100.91;4991375;28;20591;-85
2024/01/30 01:03:37;;;;;;;42.17;17.20;;;;;;;-141.97;57.37;46293.03;4975184;28;20194;-85
2024/01/30 01:06:03;;;;;;;34.13;14.20;;;;;;;-141.97;58.25;46220.03;4974366;28;20237;-85
2024/01/30 01:08:28;;;;;;;30.43;12.90;;;;;;;-141.97;58.51;46193.13;4959369;28;20175;-86
2024/01/30 01:10:54;;;;;;;28.20;12.27;;;;;;;-141.97;60.56;46024.06;4975892;28;20178;-85
2024/01/30 01:13:19;;;;;;;19.00;8.97;;;;;;;-141.97;61.06;46485.19;4974636;28;20172;-87
2024/01/30 01:15:44;;;;;;;21.10;9.30;;;;;;;-141.97;62.16;46058.63;4974337;28;20498;-87
2024/01/30 01:18:10;;;;;;;26.50;10.23;;;;;;;-141.97;62.92;46204.66;4958996;28;20175;-85
2024/01/30 01:20:35;;;;;;;33.90;15.53;;;;;;;-141.97;64.29;46077.84;4974022;28;20194;-86
2024/01/30 01:23:01;;;;;;;45.70;22.17;;;;;;;-141.97;65.46;46531.28;4974623;28;20184;-86
2024/01/30 01:25:26;;;;;;;22.57;11.27;;;;;;;-141.97;66.19;46081.69;4957365;28;20178;-86
2024/01/30 01:27:52;;;;;;;26.87;13.23;;;;;;;-141.97;66.85;46442.91;4958205;28;20186;-86
2024/01/30 01:30:21;;;;;;;32.73;16.83;;;;;;;-141.97;66.98;45985.63;4957935;28;20573;-87
2024/01/30 01:32:54;;;;;;;30.20;13.40;;;;;;;-141.97;69.32;45937.59;4958463;28;20947;-87
2024/01/30 01:35:21;;;;;;;32.83;15.73;;;;;;;-141.97;69.64;46089.38;4959817;28;20470;-87
2024/01/30 01:37:46;;;;;;;48.80;21.70;;;;;;;-141.97;69.72;46198.91;4974327;28;20411;-87
2024/01/30 01:40:12;;;;;;;35.37;16.37;;;;;;;-141.97;69.63;46196.97;4990253;28;20766;-86
2024/01/30 01:42:38;;;;;;;24.83;12.50;;;;;;;-141.97;70.18;46269.97;4989818;28;20164;-86
2024/01/30 01:45:04;;;;;;;19.13;9.70;;;;;;;-141.97;70.96;46419.84;4973606;28;20194;-87
2024/01/30 01:47:29;;;;;;;17.90;8.60;;;;;;;-141.97;71.52;46587.00;4958241;28;20188;-86
2024/01/30 01:49:54;;;;;;;18.27;7.70;;;;;;;-141.97;73.11;46337.22;4973656;28;20539;-87
2024/01/30 01:52:20;;;;;;;18.33;8.27;;;;;;;-141.97;74.61;46173.91;4973652;28;20616;-86
2024/01/30 01:54:45;;;;;;;18.83;8.93;;;;;;;-141.97;75.15;46127.81;4958027;28;20242;-87
2024/01/30 01:57:11;;;;;;;22.47;9.03;;;;;;;-141.97;75.96;46089.38;4975626;28;20329;-87
2024/01/30 01:59:36;;;;;;;21.23;9.60;;;;;;;-141.97;76.75;46333.38;4957500;28;20171;-87
2024/01/30 02:02:02;;;;;;;22.27;9.83;;;;;;;-141.97;76.89;46462.13;4973781;28;20176;-87
2024/01/30 02:04:27;;;;;;;21.93;10.70;;;;;;;-141.97;75.93;45966.44;4973267;28;20616;-86
2024/01/30 02:06:53;;;;;;;21.83;10.30;;;;;;;-141.97;76.02;46212.34;4957228;28;20219;-86
2024/01/30 02:09:18;;;;;;;22.50;11.67;;;;;;;-141.97;75.69;45993.31;4973429;28;20174;-88
2024/01/30 02:11:43;;;;;;;65.83;27.97;;;;;;;-141.97;75.27;46168.16;4958126;28;20171;-87
2024/01/30 02:14:09;;;;;;;55.17;26.70;;;;;;;-141.97;75.12;46058.63;4973558;28;20195;-87
2024/01/30 02:16:34;;;;;;;59.27;27.07;;;;;;;-141.97;75.42;46266.13;4957277;28;20179;-87
2024/01/30 02:19:00;;;;;;;22.53;9.77;;;;;;;-141.97;78.08;46160.47;4989645;28;20164;-87
2024/01/30 02:21:25;;;;;;;22.50;9.33;;;;;;;-141.97;81.16;46515.91;4972647;28;20171;-87
2024/01/30 02:23:51;;;;;;;21.77;9.50;;;;;;;-141.97;82.80;46433.28;4957519;28;20191;-87
2024/01/30 02:26:16;;;;;;;17.67;8.30;;;;;;;-141.97;84.15;46024.06;4973281;28;20172;-88
2024/01/30 02:28:42;;;;;;;20.87;9.30;;;;;;;-141.97;84.90;46031.75;4973011;28;20234;-87
2024/01/30 02:31:07;;;;;;;21.07;9.80;;;;;;;-141.97;86.98;46489.03;4957693;28;20174;-87
2024/01/30 02:33:33;;;;;;;21.23;9.00;;;;;;;-141.97;88.11;46354.53;4973099;28;20168;-86
2024/01/30 02:35:58;;;;;;;31.40;13.00;;;;;;;-141.97;87.82;46279.59;4973205;28;20187;-87
2024/01/30 02:38:24;;;;;;;23.93;10.27;;;;;;;-141.97;86.90;46168.16;4973032;28;20191;-87
2024/01/30 02:40:49;;;;;;;27.40;10.40;;;;;;;-141.97;86.46;46377.56;4974015;28;20573;-87
2024/01/30 02:43:15;;;;;;;17.13;7.87;;;;;;;-141.97;86.45;46519.75;4957511;28;20167;-87
2024/01/30 02:45:41;;;;;;;24.07;9.47;;;;;;;-141.97;86.72;46223.88;4958211;28;20806;-87
2024/01/30 02:48:06;;;;;;;21.97;9.03;;;;;;;-141.97;86.96;46550.50;4973009;28;20163;-87
2024/01/30 02:50:32;;;;;;;23.23;9.83;;;;;;;-141.97;86.98;46567.81;4971895;28;20202;-85
2024/01/30 02:52:57;;;;;;;23.73;9.90;;;;;;;-141.97;86.20;46533.22;4956629;28;20194;-87
2024/01/30 02:55:23;;;;;;;25.67;11.03;;;;;;;-141.97;85.68;46196.97;4956505;28;20369;-86
2024/01/30 02:57:48;;;;;;;25.87;10.83;;;;;;;-141.97;84.90;46546.66;4974700;28;20182;-86
2024/01/30 03:00:14;;;;;;;25.17;11.77;;;;;;;-141.97;84.20;46020.22;4975291;28;20167;-84
2024/01/30 03:02:39;;;;;;;23.70;10.53;;;;;;;-141.97;83.04;46256.53;4990558;28;20195;-86
2024/01/30 03:05:05;;;;;;;47.00;22.47;;;;;;;-141.97;83.22;46131.66;4989347;28;20291;-86
2024/01/30 03:07:31;;;;;;;46.22;20.67;;;;;;;-141.97;83.04;46544.75;4973390;28;20223;-86
2024/01/30 03:09:56;;;;;;;32.47;14.73;;;;;;;-141.97;82.54;46004.84;4973467;28;20227;-86
2024/01/30 03:12:22;;;;;;;29.07;12.23;;;;;;;-141.97;81.88;46585.09;4957042;28;20171;-86
2024/01/30 03:14:49;;;;;;;25.13;11.47;;;;;;;-141.97;81.59;46039.44;4973735;28;20199;-86
2024/01/30 03:17:14;;;;;;;32.10;12.65;;;;;;;-141.97;80.81;46166.22;4973091;28;20266;-86
2024/01/30 03:19:40;;;;;;;33.43;14.30;;;;;;;-141.97;80.21;46600.47;4972868;28;20190;-87
2024/01/30 03:22:06;;;;;;;26.10;12.27;;;;;;;-141.97;80.27;46001.00;4972480;28;20602;-86
2024/01/30 03:24:31;;;;;;;28.10;11.30;;;;;;;-141.97;79.14;46093.22;4972130;28;20604;-87
2024/01/30 03:26:57;;;;;;;20.23;9.27;;;;;;;-141.97;79.15;46448.66;4956531;28;20175;-87
2024/01/30 03:29:22;;;;;;;12.33;5.47;;;;;;;-141.97;78.97;46569.72;4973708;28;20168;-87
2024/01/30 03:31:47;;;;;;;21.67;9.13;;;;;;;-141.97;79.75;46266.13;4973069;28;20168;-87
2024/01/30 03:34:13;;;;;;;22.90;9.40;;;;;;;-141.97;80.12;46383.34;4973294;28;20214;-87
2024/01/30 03:36:39;;;;;;;22.50;9.10;;;;;;;-141.97;80.04;46298.81;4957857;28;20168;-86
2024/01/30 03:39:04;;;;;;;22.43;9.17;;;;;;;-141.97;80.60;46235.41;4973322;28;20615;-86
2024/01/30 03:41:29;;;;;;;19.17;8.47;;;;;;;-141.97;82.15;46268.06;4972669;28;20488;-86
2024/01/30 03:43:55;;;;;;;17.33;6.93;;;;;;;-141.97;83.65;45966.44;4957022;28;20168;-86
2024/01/30 03:46:20;;;;;;;20.00;8.27;;;;;;;-141.97;85.09;46002.94;4956714;28;20160;-86
2024/01/30 03:48:46;;;;;;;21.43;9.13;;;;;;;-141.97;85.80;46156.63;4956318;28;20168;-87
2024/01/30 03:51:15;;;;;;;23.37;8.97;;;;;;;-141.97;85.28;46250.78;4956576;28;20182;-86
2024/01/30 03:53:41;;;;;;;19.52;8.48;;;;;;;-141.97;84.45;45977.94;4973627;28;20615;-87
2024/01/30 03:56:07;;;;;;;10.73;4.93;;;;;;;-141.97;84.55;46508.22;4974436;28;20261;-87
2024/01/30 03:58:33;;;;;;;20.23;9.27;;;;;;;-141.97;84.01;46650.44;4975310;28;20191;-87
2024/01/30 04:00:58;;;;;;;19.93;8.77;;;;;;;-141.97;83.53;46558.19;4973119;28;20183;-87
2024/01/30 04:03:24;;;;;;;19.13;9.20;;;;;;;-141.97;83.28;46172.00;4956103;28;20187;-87
2024/01/30 04:05:51;;;;;;;24.57;8.57;;;;;;;-141.97;84.71;46100.91;4956202;28;20707;-86
2024/01/30 04:08:16;;;;;;;19.73;8.73;;;;;;;-141.97;86.31;46319.94;4960287;28;20179;-87
2024/01/30 04:10:41;;;;;;;17.20;7.33;;;;;;;-141.97;87.50;46196.97;4976007;28;20187;-88
2024/01/30 04:13:07;;;;;;;23.47;7.50;;;;;;;-141.97;87.29;46619.69;4959763;28;20180;-87
2024/01/30 04:15:32;;;;;;;19.63;7.80;;;;;;;-141.97;87.01;46504.38;4975792;28;20203;-88
2024/01/30 04:17:59;;;;;;;22.07;8.30;;;;;;;-141.97;86.58;46081.69;4977555;28;20179;-87
2024/01/30 04:20:24;;;;;;;22.92;9.25;;;;;;;-141.97;85.91;46635.06;4976986;28;20183;-87
2024/01/30 04:22:50;;;;;;;20.33;8.57;;;;;;;-141.97;85.45;46515.91;4975956;28;20225;-87
2024/01/30 04:25:15;;;;;;;19.07;8.40;;;;;;;-141.97;85.15;46160.47;4976406;28;20182;-88
2024/01/30 04:27:41;;;;;;;18.90;8.03;;;;;;;-141.97;85.18;46335.31;4960425;28;20182;-87
2024/01/30 04:30:07;;;;;;;20.30;8.37;;;;;;;-141.97;86.61;46254.59;4960649;28;20262;-88
2024/01/30 04:32:32;;;;;;;19.60;7.80;;;;;;;-141.97;86.70;46550.50;4978291;28;20246;-87
2024/01/30 04:34:58;;;;;;;22.80;8.73;;;;;;;-141.97;86.54;46673.47;4961025;28;20607;-88
2024/01/30 04:37:23;;;;;;;22.80;9.57;;;;;;;-141.97;85.63;46185.44;4977374;28;21030;-88
2024/01/30 04:39:49;;;;;;;20.67;9.70;;;;;;;-141.97;84.97;46001.00;4976418;28;20233;-87
2024/01/30 04:42:14;;;;;;;21.07;8.70;;;;;;;-141.97;84.43;46152.78;4959297;28;20183;-88
2024/01/30 04:44:40;;;;;;;22.07;9.30;;;;;;;-141.97;83.52;46502.47;4960237;28;20195;-88
2024/01/30 04:47:08;;;;;;;22.90;9.47;;;;;;;-141.97;82.94;46020.22;4961445;28;20171;-86
2024/01/30 04:49:33;;;;;;;22.02;9.75;;;;;;;-141.97;82.02;46058.63;4992843;28;20164;-86
2024/01/30 04:51:59;;;;;;;22.13;9.93;;;;;;;-141.97;80.92;46233.47;4982390;28;20178;-87
2024/01/30 04:54:24;;;;;;;23.27;10.33;;;;;;;-141.97;81.53;46145.09;4999012;28;20211;-87
2024/01/30 04:56:50;;;;;;;22.63;9.23;;;;;;;-141.97;82.09;45999.09;5000012;28;20156;-86
2024/01/30 04:59:15;;;;;;;22.53;10.83;;;;;;;-141.97;82.31;45983.72;5016509;28;20166;-87
2024/01/30 05:01:41;;;;;;;24.20;10.70;;;;;;;-141.97;81.80;46097.06;4978583;28;20216;-86
2024/01/30 05:04:09;;;;;;;23.50;10.80;;;;;;;-141.97;81.94;46223.88;4961290;28;20191;-86
2024/01/30 05:06:34;;;;;;;30.65;11.20;;;;;;;-141.97;82.81;46193.13;4976976;28;20794;-85
2024/01/30 05:09:00;;;;;;;46.03;19.03;;;;;;;-141.97;83.60;46050.97;4977895;28;20171;-85
2024/01/30 05:11:25;;;;;;;37.00;17.67;;;;;;;-141.97;83.66;46644.66;4978060;28;20199;-86
2024/01/30 05:13:51;;;;;;;40.93;17.60;;;;;;;-141.97;83.22;46210.41;4975498;28;20171;-86
2024/01/30 05:16:16;;;;;;;31.50;14.37;;;;;;;-141.97;82.50;46245.00;4977585;28;20198;-85
2024/01/30 05:18:41;;;;;;;31.17;12.03;;;;;;;-141.97;82.00;46168.16;4993184;28;20605;-87
2024/01/30 05:21:07;;;;;;;36.03;15.97;;;;;;;-141.97;81.23;45893.41;4997990;28;20239;-87
2024/01/30 05:23:32;;;;;;;37.80;18.40;;;;;;;-141.97;81.91;46458.28;5003882;28;20245;-86
2024/01/30 05:26:00;;;;;;;39.00;18.50;;;;;;;-141.97;82.05;46535.13;4989773;28;20667;-87
2024/01/30 05:28:26;;;;;;;26.40;12.95;;;;;;;-141.97;81.43;46258.44;4974126;28;20175;-86
2024/01/30 05:30:51;;;;;;;31.77;14.47;;;;;;;-141.97;81.51;45991.41;4990087;28;20202;-85
2024/01/30 05:33:17;;;;;;;29.17;12.93;;;;;;;-141.97;81.65;46223.88;4977032;28;20176;-86
2024/01/30 05:35:42;;;;;;;37.53;18.37;;;;;;;-141.97;81.66;46122.03;4994845;28;20218;-86
2024/01/30 05:38:08;;;;;;;27.87;14.13;;;;;;;-141.97;83.34;46024.06;4974282;28;20199;-87
2024/01/30 05:40:33;;;;;;;34.07;15.57;;;;;;;-141.97;84.46;46560.13;4958072;28;20175;-87
2024/01/30 05:43:00;;;;;;;31.07;14.57;;;;;;;-141.97;85.32;46074.00;4990154;28;20171;-87
2024/01/30 05:45:26;;;;;;;28.83;13.88;;;;;;;-141.97;86.12;46348.75;4990298;28;20183;-87
2024/01/30 05:47:52;;;;;;;37.80;16.87;;;;;;;-141.97;86.74;46172.00;4990249;28;20608;-87
2024/01/30 05:50:17;;;;;;;44.60;20.80;;;;;;;-141.97;86.45;46583.16;4973712;28;20484;-86
2024/01/30 05:52:43;;;;;;;52.87;22.87;;;;;;;-141.97;85.58;46588.94;4990378;28;20581;-86
2024/01/30 05:55:09;;;;;;;57.33;25.27;;;;;;;-141.97;85.10;46481.34;4974304;28;20651;-86
2024/01/30 05:57:35;;;;;;;59.33;25.30;;;;;;;-141.97;84.66;46022.13;4991445;28;20195;-86
2024/01/30 06:00:00;;;;;;;49.77;21.03;;;;;;;-141.97;84.30;46612.00;4990298;28;20218;-86
2024/01/30 06:02:25;;;;;;;55.90;24.47;;;;;;;-141.97;84.12;46590.84;4973864;28;20258;-87
2024/01/30 06:04:51;;;;;;;60.77;29.13;;;;;;;-141.97;84.26;46258.44;4990364;28;20164;-86
2024/01/30 06:07:17;;;;;;;104.07;29.60;;;;;;;-141.97;83.85;46047.13;4974126;28;20613;-86
2024/01/30 06:09:43;;;;;;;78.07;23.57;;;;;;;-141.97;83.19;46218.09;4973225;28;20234;-84
2024/01/30 06:12:08;;;;;;;78.53;24.67;;;;;;;-141.97;83.31;46120.13;4975108;28;20453;-89
2024/01/30 06:14:34;;;;;;;125.53;34.20;;;;;;;-141.97;82.50;46020.22;4974103;28;20691;-90
2024/01/30 06:16:59;;;;;;;65.40;26.50;;;;;;;-141.97;82.03;46431.38;4989303;28;20559;-88
2024/01/30 06:19:25;;;;;;;62.33;29.43;;;;;;;-141.97;82.50;46237.31;4973425;28;20175;-88
2024/01/30 06:21:50;;;;;;;62.87;29.73;;;;;;;-141.97;82.10;46481.34;4973453;28;20175;-89
2024/01/30 06:24:16;;;;;;;122.83;49.10;;;;;;;-141.97;81.38;46510.16;4990785;28;20206;-88
2024/01/30 06:26:41;;;;;;;74.90;31.60;;;;;;;-141.97;81.09;46120.13;4991098;28;20267;-89
2024/01/30 06:29:07;;;;;;;80.07;30.83;;;;;;;-141.97;80.35;46133.56;4972327;28;20199;-90
2024/01/30 06:31:33;;;;;;;111.40;39.40;;;;;;;-141.97;80.04;46502.47;4989800;28;20175;-87
2024/01/30 06:33:58;;;;;;;68.53;29.47;;;;;;;-141.97;80.56;46275.75;4973790;28;20466;-89
2024/01/30 06:36:23;;;;;;;75.27;29.87;;;;;;;-141.97;80.66;46569.72;4991346;28;20230;-89
2024/01/30 06:38:49;;;;;;;36.03;16.63;;;;;;;-141.97;80.43;46335.31;4989775;28;20175;-88
2024/01/30 06:41:15;;;;;;;32.53;14.23;;;;;;;-141.97;81.00;46074.00;4973469;28;20186;-88
2024/01/30 06:43:40;;;;;;;28.17;12.63;;;;;;;-141.97;81.58;46246.94;4973517;28;20168;-89
2024/01/30 06:46:06;;;;;;;46.10;20.53;;;;;;;-141.97;82.16;45960.66;4989139;28;20167;-88
2024/01/30 06:48:31;;;;;;;84.30;29.93;;;;;;;-141.97;82.73;46243.09;4989572;28;20343;-88
2024/01/30 06:50:57;;;;;;;40.57;17.97;;;;;;;-141.97;82.94;46037.50;4974930;28;20168;-88
2024/01/30 06:53:23;;;;;;;38.00;16.30;;;;;;;-141.97;83.57;46623.53;4957603;28;20242;-89
2024/01/30 06:55:48;;;;;;;39.37;18.97;;;;;;;-141.97;84.03;46218.09;4999216;28;20330;-88
2024/01/30 06:58:15;;;;;;;44.30;22.60;;;;;;;-141.97;83.33;46225.78;5007982;28;20168;-88
2024/01/30 07:00:41;;;;;;;47.65;22.80;;;;;;;-141.97;82.41;46450.59;4998663;28;20168;-87
2024/01/30 07:03:07;;;;;;;53.30;23.13;;;;;;;-141.97;80.17;46200.81;4989994;28;20179;-88
2024/01/30 07:05:32;;;;;;;46.23;17.67;;;;;;;-141.97;78.85;46027.91;4974293;28;20307;-88
2024/01/30 07:07:58;;;;;;;47.77;22.20;;;;;;;-141.97;78.41;46114.34;4973057;28;20537;-88
2024/01/30 07:10:23;;;;;;;54.70;22.30;;;;;;;-141.97;78.35;46062.47;4989827;28;20167;-87
2024/01/30 07:12:49;;;;;;;28.53;11.80;;;;;;;-141.97;78.81;46208.50;4956586;28;20180;-89
2024/01/30 07:15:18;;;;;;;32.10;14.87;;;;;;;-141.97;79.53;46221.94;4981689;28;20195;-88
2024/01/30 07:17:43;;;;;;;40.10;17.75;;;;;;;-141.97;78.55;46141.25;4974149;28;20266;-87
2024/01/30 07:20:09;;;;;;;78.57;30.43;;;;;;;-141.97;78.42;46569.72;4990122;28;20207;-87
2024/01/30 07:22:36;;;;;;;20.98;9.52;;;;;;;-141.97;78.45;46027.91;4973218;28;20167;-88
2024/01/30 07:25:01;;;;;;;28.53;11.97;;;;;;;-141.97;79.77;46198.91;4989056;28;20171;-88
2024/01/30 07:27:26;;;;;;;22.53;10.13;;;;;;;-141.97;80.69;46204.66;4973636;28;20184;-88
2024/01/30 07:29:52;;;;;;;24.37;11.27;;;;;;;-141.97;80.62;46123.97;4989310;28;20175;-88
2024/01/30 07:32:18;;;;;;;37.57;19.20;;;;;;;-141.97;80.23;46141.25;4990000;28;20168;-89
2024/01/30 07:34:44;;;;;;;87.20;35.67;;;;;;;-141.97;78.55;46567.81;4973839;28;20199;-87
2024/01/30 07:37:10;;;;;;;37.00;17.20;;;;;;;-141.97;78.02;46020.22;4973131;28;20183;-87
2024/01/30 07:39:36;;;;;;;43.20;19.20;;;;;;;-141.97;77.23;46108.59;4983140;28;20166;-87
2024/01/30 07:42:01;;;;;;;50.77;21.93;;;;;;;-141.97;76.37;45956.81;4997708;28;20415;-88
2024/01/30 07:44:26;;;;;;;43.13;21.07;;;;;;;-141.97;75.39;46369.88;4996424;28;20170;-88
2024/01/30 07:46:52;;;;;;;26.77;12.23;;;;;;;-141.97;73.87;46024.06;4976899;28;20183;-88
2024/01/30 07:49:17;;;;;;;25.03;11.03;;;;;;;-141.97;74.36;46110.50;4976357;28;20191;-89
2024/01/30 07:51:43;;;;;;;36.33;18.47;;;;;;;-141.97;74.30;46214.25;4992871;28;20167;-88
2024/01/30 07:54:12;;;;;;;44.58;22.38;;;;;;;-141.97;73.07;46200.81;4993773;28;20241;-88
2024/01/30 07:56:37;;;;;;;37.70;17.27;;;;;;;-141.97;72.78;46208.50;5000711;28;20535;-87
2024/01/30 07:59:02;;;;;;;31.97;12.73;;;;;;;-141.97;72.38;46471.72;4996862;28;20441;-86
2024/01/30 08:01:28;;;;;;;28.60;13.80;;;;;;;-141.97;72.81;46050.97;4976764;28;20630;-87
2024/01/30 08:03:53;;;;;;;42.60;18.80;;;;;;;-141.97;72.01;46075.94;4976751;28;20187;-85
2024/01/30 08:06:19;;;;;;;42.17;17.30;;;;;;;-141.97;71.80;45977.94;4970799;28;20228;-87
2024/01/30 08:08:45;;;;;;;38.77;15.80;;;;;;;-141.97;71.08;46512.06;4938016;29;20181;-88
2024/01/30 08:11:10;;;;;;;32.90;14.90;;;;;;;-141.97;68.68;46062.47;4937879;29;20257;-86
2024/01/30 08:13:36;;;;;;;25.17;11.80;;;;;;;-141.97;68.68;46024.06;4970123;28;20165;-88
2024/01/30 08:16:01;;;;;;;39.30;17.70;;;;;;;-141.97;69.89;46581.25;4954151;29;20188;-88
2024/01/30 08:18:26;;;;;;;69.73;26.10;;;;;;;-141.97;68.85;46414.09;4978780;28;20994;-88
2024/01/30 08:20:52;;;;;;;74.93;30.37;;;;;;;-141.97;67.90;46089.38;4969222;28;20191;-86
2024/01/30 08:23:17;;;;;;;48.40;21.17;;;;;;;-141.97;68.21;46296.88;4952997;29;20165;-89
2024/01/30 08:25:43;;;;;;;27.13;11.87;;;;;;;-141.97;68.95;46143.19;4953565;29;20172;-87
2024/01/30 08:28:08;;;;;;;17.17;8.57;;;;;;;-141.97;69.08;46487.09;4937652;29;20165;-89
2024/01/30 08:30:34;;;;;;;24.90;11.00;;;;;;;-141.97;69.06;46196.97;4969938;28;20611;-89
2024/01/30 08:32:59;;;;;;;40.00;18.67;;;;;;;-141.97;68.19;46538.97;4954918;29;20164;-89
2024/01/30 08:35:25;;;;;;;107.23;32.97;;;;;;;-141.97;67.20;46371.81;4969790;28;20184;-89
2024/01/30 08:37:50;;;;;;;111.67;33.53;;;;;;;-141.97;66.47;46020.22;4937411;29;20169;-89
2024/01/30 08:40:16;;;;;;;26.03;11.33;;;;;;;-141.97;66.94;46435.22;4969492;28;20237;-88
2024/01/30 08:42:41;;;;;;;84.70;26.87;;;;;;;-141.97;66.48;46200.81;4969643;28;20161;-87
2024/01/30 08:45:08;;;;;;;63.67;21.60;;;;;;;-141.97;65.17;45989.47;4953577;29;20573;-88
2024/01/30 08:47:33;;;;;;;31.50;12.93;;;;;;;-141.97;64.42;46112.44;4953336;29;20557;-86
2024/01/30 08:49:59;;;;;;;22.73;9.83;;;;;;;-141.97;63.14;45989.47;4969093;28;20404;-89
2024/01/30 08:52:24;;;;;;;30.00;12.37;;;;;;;-141.97;63.05;46512.06;4968856;28;20259;-88
2024/01/30 08:54:50;;;;;;;22.93;11.03;;;;;;;-141.97;61.45;46179.69;4968784;28;20247;-89
2024/01/30 08:57:15;;;;;;;25.33;11.47;;;;;;;-141.97;60.90;46137.41;4968925;28;20253;-88
2024/01/30 08:59:41;;;;;;;26.53;11.57;;;;;;;-141.97;60.38;46181.59;4968812;28;20177;-88
2024/01/30 09:02:06;;;;;;;23.30;11.60;;;;;;;-141.97;59.94;46104.75;4969663;28;20645;-89
2024/01/30 09:04:31;;;;;;;20.77;8.57;;;;;;;-141.97;58.51;46469.81;4952644;29;20172;-89
2024/01/30 09:06:57;;;;;;;21.87;10.77;;;;;;;-141.97;58.10;45983.72;4952647;28;20216;-89
2024/01/30 09:09:22;;;;;;;38.93;16.03;;;;;;;-141.97;57.00;45993.31;4936667;29;20165;-89
2024/01/30 09:11:48;;;;;;;38.40;15.23;;;;;;;-141.97;55.53;45904.94;4952505;29;20247;-89
2024/01/30 09:14:13;;;;;;;40.57;19.07;;;;;;;-141.97;53.37;45862.69;4937121;29;20176;-89
2024/01/30 09:16:39;;;;;;;25.87;11.33;;;;;;;-141.97;52.45;46531.28;4968963;28;20164;-88
2024/01/30 09:58:32;;;;;;;18.67;8.70;;;;;;;-141.97;50.47;45952.97;5069027;28;20574;-89
2024/01/30 10:00:58;;;;;;;19.67;8.97;;;;;;;-141.97;50.22;45974.09;5033498;28;20435;-91
2024/01/30 10:03:23;;;;;;;30.10;15.53;;;;;;;-141.97;49.39;46433.28;5016992;28;20172;-89
2024/01/30 10:05:52;;;;;;;43.60;20.33;;;;;;;-141.97;49.68;46118.19;5025141;28;20218;-89
2024/01/30 10:08:19;;;;;;;27.90;11.57;;;;;;;-141.97;49.01;46319.94;5032327;28;20195;-91
2024/01/30 10:10:46;;;;;;;22.67;9.97;;;;;;;-141.97;49.02;46062.47;5021407;28;20423;-91
2024/01/30 10:13:12;;;;;;;57.77;22.63;;;;;;;-141.97;49.65;45935.69;5045234;28;20911;-89
2024/01/30 10:15:38;;;;;;;41.50;19.70;;;;;;;-141.97;49.26;46394.88;5017908;28;20423;-90
2024/01/30 10:18:06;;;;;;;29.97;13.00;;;;;;;-141.97;47.99;46056.72;5017826;28;20177;-90
2024/01/30 10:20:32;;;;;;;20.97;10.37;;;;;;;-141.97;46.94;46091.31;5017554;28;20419;-90
2024/01/30 10:22:57;;;;;;;23.63;10.17;;;;;;;-141.97;46.08;46377.56;5021075;28;20434;-88
2024/01/30 10:25:23;;;;;;;18.93;8.77;;;;;;;-141.97;45.33;46344.91;5018505;28;20286;-90
2024/01/30 10:27:54;;;;;;;15.53;8.57;;;;;;;-141.97;45.34;45951.06;5016991;28;20683;-89
2024/01/30 10:30:19;;;;;;;30.30;13.57;;;;;;;-141.97;45.18;46114.34;5018151;28;20173;-90
2024/01/30 10:32:45;;;;;;;19.43;8.67;;;;;;;-141.97;44.88;46494.78;5034669;28;20451;-88
2024/01/30 10:35:10;;;;;;;23.50;11.63;;;;;;;-141.97;45.19;45939.53;5016799;28;20216;-90
2024/01/30 10:37:36;;;;;;;15.37;8.20;;;;;;;-141.97;44.22;46300.72;5033935;28;20165;-90
2024/01/30 10:40:04;;;;;;;14.20;7.10;;;;;;;-141.97;44.08;46389.09;5016986;28;20651;-88
2024/01/30 10:42:31;;;;;;;15.70;7.87;;;;;;;-141.97;44.79;46366.06;5016452;28;20524;-91
2024/01/30 10:45:12;;;;;;;57.43;21.83;;;;;;;-141.97;44.13;46293.03;5016984;28;20412;-90
2024/01/30 10:47:37;;;;;;;18.03;8.53;;;;;;;-141.97;43.12;46104.75;5017749;28;20469;-91
2024/01/30 10:50:03;;;;;;;20.57;10.93;;;;;;;-141.97;42.66;46064.41;5016486;28;20419;-93
2024/01/30 10:52:29;;;;;;;37.77;17.50;;;;;;;-141.97;43.00;45989.47;5016164;28;20169;-90
2024/01/30 10:54:55;;;;;;;29.80;14.33;;;;;;;-141.97;43.00;45997.16;5022399;28;20219;-88
2024/01/30 10:57:25;;;;;;;17.47;9.37;;;;;;;-141.97;42.54;46227.72;5015779;28;20462;-87
2024/01/30 10:59:52;;;;;;;40.50;17.43;;;;;;;-141.97;42.41;46091.31;5003985;28;20177;-89
2024/01/30 11:02:18;;;;;;;44.37;19.10;;;;;;;-141.97;42.83;46118.19;5005446;28;20451;-88
2024/01/30 11:04:44;;;;;;;133.50;51.37;;;;;;;-141.97;43.11;46287.28;5002737;28;20768;-90
2024/01/30 11:07:20;;;;;;;49.23;24.40;;;;;;;-141.97;42.85;46070.16;5004582;28;20204;-88
2024/01/30 11:09:50;;;;;;;30.60;14.90;;;;;;;-141.97;42.66;46081.69;5007522;28;20181;-88
2024/01/30 11:12:16;;;;;;;30.37;15.70;;;;;;;-141.97;42.48;46097.06;5019706;28;20466;-89
2024/01/30 11:14:43;;;;;;;14.27;8.40;;;;;;;-141.97;41.63;46398.72;5002618;28;20431;-90
2024/01/30 11:17:09;;;;;;;12.73;7.23;;;;;;;-141.97;41.24;46058.63;5003361;28;20192;-89
2024/01/30 11:19:35;;;;;;;49.13;17.77;;;;;;;-141.97;42.40;46442.91;5019126;28;20885;-88
2024/01/30 11:22:00;;;;;;;15.20;6.73;;;;;;;-141.97;41.78;46099.00;5018771;28;20603;-89
2024/01/30 11:24:27;;;;;;;11.30;6.30;;;;;;;-141.97;41.70;46027.91;5020291;28;20176;-90
2024/01/30 11:26:59;;;;;;;9.57;5.73;;;;;;;-141.97;40.88;46391.03;5003198;28;20274;-88
2024/01/30 11:29:28;;;;;;;12.10;7.10;;;;;;;-141.97;40.60;46308.41;5004468;28;20440;-91
2024/01/30 11:31:54;;;;;;;19.63;9.40;;;;;;;-141.97;40.10;45974.09;5002468;28;20431;-88
2024/01/30 11:34:21;;;;;;;22.87;12.00;;;;;;;-141.97;39.36;46070.16;5004467;28;20557;-89
2024/01/30 11:36:47;;;;;;;17.90;9.03;;;;;;;-141.97;38.48;46027.91;5005493;28;21067;-88